MWCB

Gerrard Smith International Airport

Cayman Brac, Cayman Islands
TAF MWCB 251700Z 2518/2618 VRB05KT 8000 SHRA SCT016 SCT030 BECMG 2523/2600 9999 FEW018
Issued Valid From Valid To
Apr-25 @ 17:00 UTC
(11 hours ago)
Apr-25 @ 18:00 UTC
(10 hours ago)
Apr-26 @ 18:00 UTC
(in 14 hours)
Expired Click to View Apr-25 @ 18:00 to Apr-25 @ 23:00
TAF MWCB 251700Z 2518/2618 VRB05KT 8000 SHRA SCT016 SCT030
Wind Visibility Clouds Conditions
Variable at 5 knots 7,998 meters
  • Scattered at 1,600' AGL
  • Scattered at 3,000' AGL
  • Rain
Becoming Apr-25 @ 23:00 to Apr-26 @ 18:00
BECMG 2523/2600 9999 FEW018
Wind Visibility Clouds Conditions
Variable at 5 knots 10,000+ meters
  • Few at 1,800' AGL
  • Rain
TAF MWCB 251700Z 2518/2618 VRB05KT 8000 SHRA SCT016 SCT030 BECMG 2523/2600 9999 FEW018
Issued Apr-25 @ 17:00 UTC
(11 hours ago)
Valid From Apr-25 @ 18:00 UTC
(10 hours ago)
Valid To Apr-26 @ 18:00 UTC
(in 14 hours)
Apr-25 @ 18:00 - Apr-25 @ 23:00
Wind Visibility
Variable at 5 knots 7,998 meters
Clouds
  • Scattered at 1,600' AGL
  • Scattered at 3,000' AGL
Conditions
  • Rain
Becoming Apr-25 @ 23:00 - Apr-26 @ 18:00
Wind Visibility
Variable at 5 knots 10,000+ meters
Clouds
  • Few at 1,800' AGL
Conditions
  • Rain